sensor_id;sensor_type;location;lat;lon;timestamp;pressure;altitude;pressure_sealevel;temperature;humidity
35910;BME280;22004;49.120;-0.200;2023-03-15T00:00:45;101507.63;;;9.41;64.65
35910;BME280;22004;49.120;-0.200;2023-03-15T00:03:11;101503.00;;;8.98;65.36
35910;BME280;22004;49.120;-0.200;2023-03-15T00:05:41;101501.94;;;9.44;64.26
35910;BME280;22004;49.120;-0.200;2023-03-15T00:08:07;101500.34;;;8.98;63.19
35910;BME280;22004;49.120;-0.200;2023-03-15T00:10:32;101500.63;;;9.48;64.79
35910;BME280;22004;49.120;-0.200;2023-03-15T00:12:57;101508.22;;;9.17;64.29
35910;BME280;22004;49.120;-0.200;2023-03-15T00:15:23;101502.88;;;9.35;63.36
35910;BME280;22004;49.120;-0.200;2023-03-15T00:17:48;101509.06;;;9.53;64.18
35910;BME280;22004;49.120;-0.200;2023-03-15T00:20:13;101509.38;;;8.97;65.17
35910;BME280;22004;49.120;-0.200;2023-03-15T00:22:40;101507.88;;;9.30;65.60
35910;BME280;22004;49.120;-0.200;2023-03-15T00:25:06;101505.63;;;9.43;65.14
35910;BME280;22004;49.120;-0.200;2023-03-15T00:27:32;101510.53;;;9.12;65.02
35910;BME280;22004;49.120;-0.200;2023-03-15T00:29:58;101517.66;;;9.21;65.76
35910;BME280;22004;49.120;-0.200;2023-03-15T00:32:23;101517.50;;;9.23;65.60
35910;BME280;22004;49.120;-0.200;2023-03-15T00:34:48;101509.47;;;9.23;64.63
35910;BME280;22004;49.120;-0.200;2023-03-15T00:37:17;101508.47;;;9.06;65.70
35910;BME280;22004;49.120;-0.200;2023-03-15T00:39:44;101509.84;;;9.28;65.35
35910;BME280;22004;49.120;-0.200;2023-03-15T00:42:11;101497.78;;;9.68;64.64
35910;BME280;22004;49.120;-0.200;2023-03-15T00:44:43;101514.19;;;9.47;65.01
35910;BME280;22004;49.120;-0.200;2023-03-15T00:47:13;101509.66;;;8.94;65.88
35910;BME280;22004;49.120;-0.200;2023-03-15T00:49:39;101506.63;;;9.42;64.51
35910;BME280;22004;49.120;-0.200;2023-03-15T00:52:05;101504.41;;;9.20;65.01
35910;BME280;22004;49.120;-0.200;2023-03-15T00:54:31;101511.59;;;9.55;63.93
35910;BME280;22004;49.120;-0.200;2023-03-15T00:57:00;101506.47;;;9.44;64.67
35910;BME280;22004;49.120;-0.200;2023-03-15T00:59:31;101512.81;;;9.43;65.43
35910;BME280;22004;49.120;-0.200;2023-03-15T01:02:04;101510.97;;;9.61;64.66
35910;BME280;22004;49.120;-0.200;2023-03-15T01:04:30;101511.81;;;8.90;65.29
35910;BME280;22004;49.120;-0.200;2023-03-15T01:06:56;101524.69;;;9.58;65.16
35910;BME280;22004;49.120;-0.200;2023-03-15T01:09:22;101513.28;;;9.38;65.33
35910;BME280;22004;49.120;-0.200;2023-03-15T01:11:47;101518.31;;;9.59;64.86
35910;BME280;22004;49.120;-0.200;2023-03-15T01:14:12;101517.13;;;9.36;65.37
35910;BME280;22004;49.120;-0.200;2023-03-15T01:16:38;101520.94;;;9.33;65.66
35910;BME280;22004;49.120;-0.200;2023-03-15T01:19:03;101511.13;;;9.42;65.16
35910;BME280;22004;49.120;-0.200;2023-03-15T01:21:28;101509.75;;;9.38;65.62
35910;BME280;22004;49.120;-0.200;2023-03-15T01:23:54;101514.28;;;9.19;66.17
35910;BME280;22004;49.120;-0.200;2023-03-15T01:26:19;101519.84;;;9.44;64.93
35910;BME280;22004;49.120;-0.200;2023-03-15T01:28:46;101522.84;;;9.23;65.84
35910;BME280;22004;49.120;-0.200;2023-03-15T01:31:23;101530.97;;;9.13;66.81
35910;BME280;22004;49.120;-0.200;2023-03-15T01:33:49;101527.44;;;9.13;66.46
35910;BME280;22004;49.120;-0.200;2023-03-15T01:36:15;101519.34;;;9.40;65.85
35910;BME280;22004;49.120;-0.200;2023-03-15T01:38:41;101527.16;;;9.16;66.58
35910;BME280;22004;49.120;-0.200;2023-03-15T01:41:06;101523.50;;;8.89;66.78
35910;BME280;22004;49.120;-0.200;2023-03-15T01:43:32;101533.75;;;8.94;67.08
35910;BME280;22004;49.120;-0.200;2023-03-15T01:48:40;101529.13;;;9.14;66.85
35910;BME280;22004;49.120;-0.200;2023-03-15T01:51:14;101535.47;;;9.13;66.61
35910;BME280;22004;49.120;-0.200;2023-03-15T01:53:42;101540.31;;;9.27;66.85
35910;BME280;22004;49.120;-0.200;2023-03-15T01:56:11;101539.69;;;9.33;66.25
35910;BME280;22004;49.120;-0.200;2023-03-15T01:58:37;101531.41;;;9.44;65.73
35910;BME280;22004;49.120;-0.200;2023-03-15T02:01:05;101536.44;;;8.29;65.55
35910;BME280;22004;49.120;-0.200;2023-03-15T02:03:36;101526.28;;;8.70;65.95
35910;BME280;22004;49.120;-0.200;2023-03-15T02:06:06;101530.91;;;9.05;66.55
35910;BME280;22004;49.120;-0.200;2023-03-15T02:08:38;101527.53;;;8.48;67.75
35910;BME280;22004;49.120;-0.200;2023-03-15T02:11:05;101522.31;;;9.19;66.63
35910;BME280;22004;49.120;-0.200;2023-03-15T02:13:32;101527.22;;;9.42;65.51
35910;BME280;22004;49.120;-0.200;2023-03-15T02:15:59;101526.25;;;9.25;66.11
35910;BME280;22004;49.120;-0.200;2023-03-15T02:18:24;101523.31;;;9.18;66.89
35910;BME280;22004;49.120;-0.200;2023-03-15T02:23:34;101529.75;;;9.25;66.70
35910;BME280;22004;49.120;-0.200;2023-03-15T02:28:38;101529.66;;;9.17;66.89
35910;BME280;22004;49.120;-0.200;2023-03-15T02:31:04;101533.88;;;9.20;66.86
35910;BME280;22004;49.120;-0.200;2023-03-15T02:33:50;101539.53;;;9.35;66.27
35910;BME280;22004;49.120;-0.200;2023-03-15T02:36:19;101530.19;;;9.39;66.07
35910;BME280;22004;49.120;-0.200;2023-03-15T02:38:46;101532.75;;;9.40;66.54
35910;BME280;22004;49.120;-0.200;2023-03-15T02:41:15;101542.53;;;9.31;66.67
35910;BME280;22004;49.120;-0.200;2023-03-15T02:43:42;101537.41;;;9.38;66.71
35910;BME280;22004;49.120;-0.200;2023-03-15T02:46:09;101534.13;;;9.26;66.57
35910;BME280;22004;49.120;-0.200;2023-03-15T02:48:36;101532.88;;;9.39;66.21
35910;BME280;22004;49.120;-0.200;2023-03-15T02:51:02;101533.13;;;9.27;66.28
35910;BME280;22004;49.120;-0.200;2023-03-15T02:53:29;101533.63;;;9.13;66.30
35910;BME280;22004;49.120;-0.200;2023-03-15T02:55:55;101543.44;;;9.22;66.53
35910;BME280;22004;49.120;-0.200;2023-03-15T02:58:20;101532.25;;;8.91;67.32
35910;BME280;22004;49.120;-0.200;2023-03-15T03:00:46;101526.94;;;9.45;65.39
35910;BME280;22004;49.120;-0.200;2023-03-15T03:03:11;101530.13;;;9.48;66.43
35910;BME280;22004;49.120;-0.200;2023-03-15T03:05:36;101538.56;;;9.36;65.59
35910;BME280;22004;49.120;-0.200;2023-03-15T03:08:02;101532.25;;;9.09;66.70
35910;BME280;22004;49.120;-0.200;2023-03-15T03:10:28;101525.69;;;9.21;65.92
35910;BME280;22004;49.120;-0.200;2023-03-15T03:12:53;101534.41;;;9.23;66.55
35910;BME280;22004;49.120;-0.200;2023-03-15T03:15:19;101527.75;;;9.45;65.26
35910;BME280;22004;49.120;-0.200;2023-03-15T03:17:45;101537.22;;;9.40;66.15
35910;BME280;22004;49.120;-0.200;2023-03-15T03:20:11;101532.47;;;8.98;66.93
35910;BME280;22004;49.120;-0.200;2023-03-15T03:22:39;101527.13;;;9.51;65.69
35910;BME280;22004;49.120;-0.200;2023-03-15T03:25:06;101531.50;;;9.52;65.77
35910;BME280;22004;49.120;-0.200;2023-03-15T03:27:32;101530.34;;;9.37;66.33
35910;BME280;22004;49.120;-0.200;2023-03-15T03:30:04;101530.03;;;9.76;65.51
35910;BME280;22004;49.120;-0.200;2023-03-15T03:32:30;101534.97;;;8.54;67.89
35910;BME280;22004;49.120;-0.200;2023-03-15T03:34:56;101528.53;;;9.38;64.96
35910;BME280;22004;49.120;-0.200;2023-03-15T03:37:21;101530.81;;;9.50;65.91
35910;BME280;22004;49.120;-0.200;2023-03-15T03:39:47;101531.41;;;9.80;65.48
35910;BME280;22004;49.120;-0.200;2023-03-15T03:42:12;101536.69;;;9.54;65.89
35910;BME280;22004;49.120;-0.200;2023-03-15T03:44:39;101539.22;;;9.02;66.61
35910;BME280;22004;49.120;-0.200;2023-03-15T03:47:05;101537.84;;;9.33;66.67
35910;BME280;22004;49.120;-0.200;2023-03-15T03:49:30;101530.28;;;9.65;65.69
35910;BME280;22004;49.120;-0.200;2023-03-15T03:51:55;101524.72;;;9.40;65.10
35910;BME280;22004;49.120;-0.200;2023-03-15T03:54:21;101517.84;;;9.64;65.42
35910;BME280;22004;49.120;-0.200;2023-03-15T03:56:47;101523.69;;;9.41;65.80
35910;BME280;22004;49.120;-0.200;2023-03-15T03:59:13;101524.59;;;9.68;65.50
35910;BME280;22004;49.120;-0.200;2023-03-15T04:01:38;101514.88;;;9.13;66.68
35910;BME280;22004;49.120;-0.200;2023-03-15T04:04:04;101514.97;;;9.57;65.70
35910;BME280;22004;49.120;-0.200;2023-03-15T04:06:29;101513.13;;;9.57;65.81
35910;BME280;22004;49.120;-0.200;2023-03-15T04:08:55;101509.28;;;9.60;65.43
35910;BME280;22004;49.120;-0.200;2023-03-15T04:11:20;101530.03;;;9.58;65.94
35910;BME280;22004;49.120;-0.200;2023-03-15T04:13:46;101530.06;;;9.40;65.32
35910;BME280;22004;49.120;-0.200;2023-03-15T04:16:11;101524.28;;;9.53;66.12
35910;BME280;22004;49.120;-0.200;2023-03-15T04:18:38;101528.56;;;9.64;65.55
35910;BME280;22004;49.120;-0.200;2023-03-15T04:21:05;101539.31;;;9.46;66.39
35910;BME280;22004;49.120;-0.200;2023-03-15T04:23:36;101533.13;;;9.45;66.11
35910;BME280;22004;49.120;-0.200;2023-03-15T04:26:02;101538.78;;;9.42;66.31
35910;BME280;22004;49.120;-0.200;2023-03-15T04:28:29;101533.97;;;9.46;66.30
35910;BME280;22004;49.120;-0.200;2023-03-15T04:30:55;101529.06;;;9.41;66.41
35910;BME280;22004;49.120;-0.200;2023-03-15T04:33:23;101526.38;;;9.41;66.13
35910;BME280;22004;49.120;-0.200;2023-03-15T04:35:49;101526.06;;;9.44;66.17
35910;BME280;22004;49.120;-0.200;2023-03-15T04:38:16;101527.06;;;9.43;66.26
35910;BME280;22004;49.120;-0.200;2023-03-15T04:40:42;101530.13;;;9.48;66.24
35910;BME280;22004;49.120;-0.200;2023-03-15T04:43:07;101536.00;;;9.34;66.46
35910;BME280;22004;49.120;-0.200;2023-03-15T04:45:33;101527.06;;;9.25;66.38
35910;BME280;22004;49.120;-0.200;2023-03-15T04:47:59;101540.31;;;9.27;66.55
35910;BME280;22004;49.120;-0.200;2023-03-15T04:50:26;101542.16;;;9.26;66.74
35910;BME280;22004;49.120;-0.200;2023-03-15T04:52:51;101535.97;;;9.26;66.48
35910;BME280;22004;49.120;-0.200;2023-03-15T04:55:17;101532.28;;;9.27;66.70
35910;BME280;22004;49.120;-0.200;2023-03-15T04:57:42;101531.06;;;9.21;66.71
35910;BME280;22004;49.120;-0.200;2023-03-15T05:00:09;101529.06;;;9.23;66.31
35910;BME280;22004;49.120;-0.200;2023-03-15T05:02:36;101530.06;;;9.22;66.85
35910;BME280;22004;49.120;-0.200;2023-03-15T05:05:12;101530.81;;;9.32;66.48
35910;BME280;22004;49.120;-0.200;2023-03-15T05:07:38;101536.84;;;9.35;66.32
35910;BME280;22004;49.120;-0.200;2023-03-15T05:10:05;101574.06;;;8.18;69.80
35910;BME280;22004;49.120;-0.200;2023-03-15T05:12:30;101570.56;;;8.64;68.97
35910;BME280;22004;49.120;-0.200;2023-03-15T05:14:58;101548.31;;;8.17;65.33
35910;BME280;22004;49.120;-0.200;2023-03-15T05:17:23;101572.78;;;8.32;68.62
35910;BME280;22004;49.120;-0.200;2023-03-15T05:19:49;101601.72;;;8.65;68.94
35910;BME280;22004;49.120;-0.200;2023-03-15T05:22:15;101592.16;;;8.90;68.21
35910;BME280;22004;49.120;-0.200;2023-03-15T05:24:41;101592.63;;;8.39;68.65
35910;BME280;22004;49.120;-0.200;2023-03-15T05:27:07;101587.78;;;9.35;67.03
35910;BME280;22004;49.120;-0.200;2023-03-15T05:29:33;101589.56;;;8.98;66.96
35910;BME280;22004;49.120;-0.200;2023-03-15T05:31:58;101599.09;;;9.28;67.26
35910;BME280;22004;49.120;-0.200;2023-03-15T05:34:24;101585.25;;;9.33;66.88
35910;BME280;22004;49.120;-0.200;2023-03-15T05:36:50;101576.31;;;9.42;66.88
35910;BME280;22004;49.120;-0.200;2023-03-15T05:39:16;101572.06;;;9.40;66.80
35910;BME280;22004;49.120;-0.200;2023-03-15T05:41:42;101588.16;;;9.40;66.45
35910;BME280;22004;49.120;-0.200;2023-03-15T05:44:07;101578.81;;;9.44;66.29
35910;BME280;22004;49.120;-0.200;2023-03-15T05:46:33;101575.84;;;9.47;66.53
35910;BME280;22004;49.120;-0.200;2023-03-15T05:48:58;101580.81;;;9.42;66.61
35910;BME280;22004;49.120;-0.200;2023-03-15T05:51:23;101582.44;;;9.52;66.26
35910;BME280;22004;49.120;-0.200;2023-03-15T05:53:49;101581.66;;;9.42;66.53
35910;BME280;22004;49.120;-0.200;2023-03-15T05:56:14;101581.44;;;9.36;66.63
35910;BME280;22004;49.120;-0.200;2023-03-15T05:58:40;101586.13;;;9.51;66.50
35910;BME280;22004;49.120;-0.200;2023-03-15T06:01:05;101582.19;;;9.28;66.43
35910;BME280;22004;49.120;-0.200;2023-03-15T06:03:30;101586.63;;;9.37;67.15
35910;BME280;22004;49.120;-0.200;2023-03-15T06:05:57;101579.97;;;9.41;66.96
35910;BME280;22004;49.120;-0.200;2023-03-15T06:08:22;101579.66;;;9.44;66.60
35910;BME280;22004;49.120;-0.200;2023-03-15T06:10:48;101586.50;;;9.56;66.28
35910;BME280;22004;49.120;-0.200;2023-03-15T06:13:14;101587.03;;;9.42;66.66
35910;BME280;22004;49.120;-0.200;2023-03-15T06:15:39;101592.22;;;9.26;67.07
35910;BME280;22004;49.120;-0.200;2023-03-15T06:18:05;101585.63;;;9.38;66.98
35910;BME280;22004;49.120;-0.200;2023-03-15T06:20:30;101596.75;;;9.25;67.53
35910;BME280;22004;49.120;-0.200;2023-03-15T06:22:56;101591.16;;;9.37;67.29
35910;BME280;22004;49.120;-0.200;2023-03-15T06:25:22;101594.50;;;9.39;67.21
35910;BME280;22004;49.120;-0.200;2023-03-15T06:27:47;101595.28;;;9.49;66.88
35910;BME280;22004;49.120;-0.200;2023-03-15T06:30:13;101600.72;;;9.39;66.95
35910;BME280;22004;49.120;-0.200;2023-03-15T06:32:38;101605.72;;;9.52;66.63
35910;BME280;22004;49.120;-0.200;2023-03-15T06:35:04;101606.47;;;9.44;66.91
35910;BME280;22004;49.120;-0.200;2023-03-15T06:37:30;101608.31;;;9.44;67.16
35910;BME280;22004;49.120;-0.200;2023-03-15T06:39:55;101607.84;;;9.48;67.08
35910;BME280;22004;49.120;-0.200;2023-03-15T06:42:20;101607.47;;;9.43;66.98
35910;BME280;22004;49.120;-0.200;2023-03-15T06:44:46;101604.78;;;9.43;67.04
35910;BME280;22004;49.120;-0.200;2023-03-15T06:47:11;101611.69;;;9.46;66.86
35910;BME280;22004;49.120;-0.200;2023-03-15T06:49:37;101616.34;;;9.44;66.99
35910;BME280;22004;49.120;-0.200;2023-03-15T06:52:03;101618.72;;;9.47;66.79
35910;BME280;22004;49.120;-0.200;2023-03-15T06:54:29;101609.16;;;9.44;67.08
35910;BME280;22004;49.120;-0.200;2023-03-15T06:56:55;101619.88;;;9.44;67.09
35910;BME280;22004;49.120;-0.200;2023-03-15T06:59:21;101624.38;;;9.44;66.80
35910;BME280;22004;49.120;-0.200;2023-03-15T07:01:46;101626.22;;;9.43;66.92
35910;BME280;22004;49.120;-0.200;2023-03-15T07:04:12;101626.38;;;9.59;66.53
35910;BME280;22004;49.120;-0.200;2023-03-15T07:06:37;101624.69;;;9.58;66.47
35910;BME280;22004;49.120;-0.200;2023-03-15T07:09:03;101621.53;;;9.00;65.49
35910;BME280;22004;49.120;-0.200;2023-03-15T07:11:29;101616.97;;;9.38;67.02
35910;BME280;22004;49.120;-0.200;2023-03-15T07:13:55;101620.56;;;9.64;66.04
35910;BME280;22004;49.120;-0.200;2023-03-15T07:16:20;101615.44;;;9.71;66.16
35910;BME280;22004;49.120;-0.200;2023-03-15T07:18:46;101627.63;;;9.20;66.45
35910;BME280;22004;49.120;-0.200;2023-03-15T07:21:11;101626.94;;;9.81;65.54
35910;BME280;22004;49.120;-0.200;2023-03-15T07:23:36;101621.03;;;9.77;65.98
35910;BME280;22004;49.120;-0.200;2023-03-15T07:26:02;101623.25;;;9.82;65.48
35910;BME280;22004;49.120;-0.200;2023-03-15T07:28:27;101635.03;;;9.53;66.00
35910;BME280;22004;49.120;-0.200;2023-03-15T07:30:57;101637.56;;;9.10;66.35
35910;BME280;22004;49.120;-0.200;2023-03-15T07:33:24;101637.53;;;9.65;65.82
35910;BME280;22004;49.120;-0.200;2023-03-15T07:35:51;101646.53;;;9.99;65.31
35910;BME280;22004;49.120;-0.200;2023-03-15T07:38:18;101655.34;;;9.92;65.41
35910;BME280;22004;49.120;-0.200;2023-03-15T07:40:43;101644.78;;;10.26;63.76
35910;BME280;22004;49.120;-0.200;2023-03-15T07:43:09;101655.03;;;10.30;64.35
35910;BME280;22004;49.120;-0.200;2023-03-15T07:45:34;101651.81;;;10.53;63.47
35910;BME280;22004;49.120;-0.200;2023-03-15T07:48:00;101657.06;;;11.98;59.77
35910;BME280;22004;49.120;-0.200;2023-03-15T07:50:25;101639.09;;;10.55;63.10
35910;BME280;22004;49.120;-0.200;2023-03-15T07:52:51;101654.78;;;11.02;62.15
35910;BME280;22004;49.120;-0.200;2023-03-15T07:55:17;101662.22;;;14.95;50.78
35910;BME280;22004;49.120;-0.200;2023-03-15T07:57:42;101658.63;;;15.39;48.88
35910;BME280;22004;49.120;-0.200;2023-03-15T08:00:08;101663.63;;;15.57;48.41
35910;BME280;22004;49.120;-0.200;2023-03-15T08:02:36;101661.44;;;15.16;49.00
35910;BME280;22004;49.120;-0.200;2023-03-15T08:05:01;101666.72;;;14.88;49.82
35910;BME280;22004;49.120;-0.200;2023-03-15T08:07:28;101663.88;;;14.52;51.10
35910;BME280;22004;49.120;-0.200;2023-03-15T08:09:54;101670.53;;;14.41;50.18
35910;BME280;22004;49.120;-0.200;2023-03-15T08:12:19;101677.19;;;12.83;55.91
35910;BME280;22004;49.120;-0.200;2023-03-15T08:14:44;101678.63;;;12.06;58.02
35910;BME280;22004;49.120;-0.200;2023-03-15T08:17:10;101676.88;;;11.80;59.36
35910;BME280;22004;49.120;-0.200;2023-03-15T08:19:37;101684.41;;;12.91;56.34
35910;BME280;22004;49.120;-0.200;2023-03-15T08:22:03;101681.63;;;12.27;57.97
35910;BME280;22004;49.120;-0.200;2023-03-15T08:24:28;101684.25;;;12.84;56.70
35910;BME280;22004;49.120;-0.200;2023-03-15T08:26:53;101683.81;;;13.59;54.26
35910;BME280;22004;49.120;-0.200;2023-03-15T08:29:19;101678.38;;;13.67;54.06
35910;BME280;22004;49.120;-0.200;2023-03-15T08:31:44;101681.13;;;12.15;57.61
35910;BME280;22004;49.120;-0.200;2023-03-15T08:34:10;101675.75;;;12.15;59.22
35910;BME280;22004;49.120;-0.200;2023-03-15T08:36:36;101672.34;;;11.81;58.97
35910;BME280;22004;49.120;-0.200;2023-03-15T08:39:02;101674.22;;;11.97;59.58
35910;BME280;22004;49.120;-0.200;2023-03-15T08:41:29;101677.13;;;11.45;60.70
35910;BME280;22004;49.120;-0.200;2023-03-15T08:43:55;101679.09;;;11.85;60.36
35910;BME280;22004;49.120;-0.200;2023-03-15T08:46:20;101670.34;;;11.91;59.70
35910;BME280;22004;49.120;-0.200;2023-03-15T08:48:46;101671.50;;;11.22;62.16
35910;BME280;22004;49.120;-0.200;2023-03-15T08:51:11;101664.63;;;12.02;59.95
35910;BME280;22004;49.120;-0.200;2023-03-15T08:53:37;101668.69;;;12.06;59.08
35910;BME280;22004;49.120;-0.200;2023-03-15T08:56:03;101664.06;;;12.72;58.21
35910;BME280;22004;49.120;-0.200;2023-03-15T08:58:28;101666.97;;;13.18;57.75
35910;BME280;22004;49.120;-0.200;2023-03-15T09:00:54;101662.09;;;12.41;60.72
35910;BME280;22004;49.120;-0.200;2023-03-15T09:03:21;101663.03;;;12.81;58.19
35910;BME280;22004;49.120;-0.200;2023-03-15T09:05:47;101655.38;;;12.54;59.67
35910;BME280;22004;49.120;-0.200;2023-03-15T09:08:13;101667.69;;;12.15;61.01
35910;BME280;22004;49.120;-0.200;2023-03-15T09:10:41;101661.03;;;12.75;58.84
35910;BME280;22004;49.120;-0.200;2023-03-15T09:13:06;101664.09;;;13.19;57.22
35910;BME280;22004;49.120;-0.200;2023-03-15T09:15:31;101661.22;;;13.21;57.84
35910;BME280;22004;49.120;-0.200;2023-03-15T09:17:57;101665.41;;;13.63;56.93
35910;BME280;22004;49.120;-0.200;2023-03-15T09:20:22;101652.16;;;12.42;59.38
35910;BME280;22004;49.120;-0.200;2023-03-15T09:22:54;101648.97;;;13.02;60.10
35910;BME280;22004;49.120;-0.200;2023-03-15T09:25:20;101648.09;;;13.18;57.63
35910;BME280;22004;49.120;-0.200;2023-03-15T09:27:46;101653.16;;;12.65;58.59
35910;BME280;22004;49.120;-0.200;2023-03-15T09:30:11;101639.41;;;12.91;58.62
35910;BME280;22004;49.120;-0.200;2023-03-15T09:32:37;101646.28;;;13.02;57.95
35910;BME280;22004;49.120;-0.200;2023-03-15T09:35:04;101643.16;;;13.30;57.78
35910;BME280;22004;49.120;-0.200;2023-03-15T09:37:30;101642.72;;;13.49;56.78
35910;BME280;22004;49.120;-0.200;2023-03-15T09:39:56;101639.19;;;13.49;58.14
35910;BME280;22004;49.120;-0.200;2023-03-15T09:48:18;101649.06;;;13.33;57.80
35910;BME280;22004;49.120;-0.200;2023-03-15T09:50:56;101654.31;;;12.63;58.86
35910;BME280;22004;49.120;-0.200;2023-03-15T09:53:44;101659.22;;;12.59;59.37
35910;BME280;22004;49.120;-0.200;2023-03-15T09:58:53;101662.78;;;12.27;61.50
35910;BME280;22004;49.120;-0.200;2023-03-15T10:01:27;101668.66;;;12.47;58.98
35910;BME280;22004;49.120;-0.200;2023-03-15T10:03:54;101670.97;;;11.69;60.54
35910;BME280;22004;49.120;-0.200;2023-03-15T10:06:25;101670.00;;;12.43;58.81
35910;BME280;22004;49.120;-0.200;2023-03-15T10:08:56;101664.28;;;12.54;58.43
35910;BME280;22004;49.120;-0.200;2023-03-15T10:11:38;101666.47;;;12.51;60.13
35910;BME280;22004;49.120;-0.200;2023-03-15T10:14:11;101667.25;;;11.61;61.01
35910;BME280;22004;49.120;-0.200;2023-03-15T10:16:43;101673.03;;;11.32;62.82
35910;BME280;22004;49.120;-0.200;2023-03-15T10:24:56;101655.13;;;13.27;58.80
35910;BME280;22004;49.120;-0.200;2023-03-15T10:27:37;101660.84;;;12.93;57.08
35910;BME280;22004;49.120;-0.200;2023-03-15T10:30:22;101669.38;;;12.97;57.31
35910;BME280;22004;49.120;-0.200;2023-03-15T10:32:56;101658.00;;;12.78;56.33
35910;BME280;22004;49.120;-0.200;2023-03-15T10:35:22;101670.78;;;12.76;56.24
35910;BME280;22004;49.120;-0.200;2023-03-15T10:37:48;101664.16;;;13.03;57.14
35910;BME280;22004;49.120;-0.200;2023-03-15T10:40:14;101671.97;;;13.68;54.62
35910;BME280;22004;49.120;-0.200;2023-03-15T10:42:44;101671.00;;;13.84;54.95
35910;BME280;22004;49.120;-0.200;2023-03-15T10:45:22;101674.06;;;13.50;52.71
35910;BME280;22004;49.120;-0.200;2023-03-15T10:47:48;101667.63;;;13.20;55.26
35910;BME280;22004;49.120;-0.200;2023-03-15T10:50:27;101668.63;;;13.27;53.88
35910;BME280;22004;49.120;-0.200;2023-03-15T10:52:56;101659.22;;;12.51;56.09
35910;BME280;22004;49.120;-0.200;2023-03-15T10:55:31;101672.22;;;12.07;57.49
35910;BME280;22004;49.120;-0.200;2023-03-15T10:58:00;101663.94;;;12.57;57.72
35910;BME280;22004;49.120;-0.200;2023-03-15T11:00:36;101676.56;;;13.29;57.02
35910;BME280;22004;49.120;-0.200;2023-03-15T11:03:05;101677.84;;;12.93;56.59
35910;BME280;22004;49.120;-0.200;2023-03-15T11:05:44;101672.66;;;12.76;55.34
35910;BME280;22004;49.120;-0.200;2023-03-15T11:08:14;101675.53;;;12.74;56.52
35910;BME280;22004;49.120;-0.200;2023-03-15T11:10:41;101680.78;;;12.27;57.34
35910;BME280;22004;49.120;-0.200;2023-03-15T11:13:17;101684.97;;;12.70;54.65
35910;BME280;22004;49.120;-0.200;2023-03-15T11:15:54;101679.06;;;12.66;55.59
35910;BME280;22004;49.120;-0.200;2023-03-15T11:21:03;101676.56;;;12.65;54.67
35910;BME280;22004;49.120;-0.200;2023-03-15T11:23:34;101666.25;;;12.77;55.08
35910;BME280;22004;49.120;-0.200;2023-03-15T11:26:01;101659.03;;;12.69;55.30
35910;BME280;22004;49.120;-0.200;2023-03-15T11:28:29;101668.00;;;12.45;52.30
35910;BME280;22004;49.120;-0.200;2023-03-15T11:30:59;101663.81;;;12.26;53.28
35910;BME280;22004;49.120;-0.200;2023-03-15T11:33:42;101662.38;;;12.71;52.14
35910;BME280;22004;49.120;-0.200;2023-03-15T11:36:19;101657.69;;;12.65;52.00
35910;BME280;22004;49.120;-0.200;2023-03-15T11:38:46;101658.91;;;12.46;52.37
35910;BME280;22004;49.120;-0.200;2023-03-15T11:41:24;101656.34;;;12.69;53.96
35910;BME280;22004;49.120;-0.200;2023-03-15T11:44:15;101658.34;;;12.67;54.72
35910;BME280;22004;49.120;-0.200;2023-03-15T11:46:54;101658.25;;;12.03;52.36
35910;BME280;22004;49.120;-0.200;2023-03-15T11:51:56;101668.84;;;11.97;54.27
35910;BME280;22004;49.120;-0.200;2023-03-15T11:54:24;101667.69;;;11.99;53.50
35910;BME280;22004;49.120;-0.200;2023-03-15T11:56:54;101672.44;;;11.55;54.47
35910;BME280;22004;49.120;-0.200;2023-03-15T11:59:31;101661.94;;;11.86;56.23
35910;BME280;22004;49.120;-0.200;2023-03-15T12:07:02;101654.34;;;11.23;55.22
35910;BME280;22004;49.120;-0.200;2023-03-15T12:12:04;101657.25;;;12.04;57.29
35910;BME280;22004;49.120;-0.200;2023-03-15T12:14:34;101642.72;;;11.73;55.51
35910;BME280;22004;49.120;-0.200;2023-03-15T12:20:04;101642.06;;;11.71;52.52
35910;BME280;22004;49.120;-0.200;2023-03-15T12:22:35;101638.69;;;11.69;53.52
35910;BME280;22004;49.120;-0.200;2023-03-15T12:25:31;101643.47;;;12.15;53.09
35910;BME280;22004;49.120;-0.200;2023-03-15T12:28:04;101637.72;;;12.27;52.86
35910;BME280;22004;49.120;-0.200;2023-03-15T12:30:38;101636.56;;;12.29;55.16
35910;BME280;22004;49.120;-0.200;2023-03-15T12:33:12;101637.53;;;12.45;55.70
35910;BME280;22004;49.120;-0.200;2023-03-15T12:35:40;101636.50;;;12.54;56.79
35910;BME280;22004;49.120;-0.200;2023-03-15T12:38:15;101629.47;;;12.36;53.40
35910;BME280;22004;49.120;-0.200;2023-03-15T12:40:53;101629.50;;;12.28;55.27
35910;BME280;22004;49.120;-0.200;2023-03-15T12:43:42;101622.88;;;12.47;53.72
35910;BME280;22004;49.120;-0.200;2023-03-15T12:49:13;101618.25;;;12.80;51.83
35910;BME280;22004;49.120;-0.200;2023-03-15T12:52:02;101622.19;;;13.09;52.03
35910;BME280;22004;49.120;-0.200;2023-03-15T12:57:28;101605.59;;;12.89;53.72
35910;BME280;22004;49.120;-0.200;2023-03-15T12:59:58;101603.13;;;12.71;53.39
35910;BME280;22004;49.120;-0.200;2023-03-15T13:02:29;101601.31;;;12.55;51.60
35910;BME280;22004;49.120;-0.200;2023-03-15T13:05:16;101597.91;;;12.70;53.09
35910;BME280;22004;49.120;-0.200;2023-03-15T13:08:03;101589.84;;;12.61;53.64
35910;BME280;22004;49.120;-0.200;2023-03-15T13:13:21;101586.69;;;12.41;52.25
35910;BME280;22004;49.120;-0.200;2023-03-15T13:16:28;101573.59;;;12.30;52.71
35910;BME280;22004;49.120;-0.200;2023-03-15T13:19:22;101564.56;;;12.71;51.72
35910;BME280;22004;49.120;-0.200;2023-03-15T13:22:03;101564.75;;;13.00;51.31
35910;BME280;22004;49.120;-0.200;2023-03-15T13:27:41;101565.78;;;12.99;51.16
35910;BME280;22004;49.120;-0.200;2023-03-15T13:30:38;101564.13;;;12.59;52.77
35910;BME280;22004;49.120;-0.200;2023-03-15T13:35:33;101554.31;;;12.58;54.02
35910;BME280;22004;49.120;-0.200;2023-03-15T13:38:27;101548.47;;;12.93;51.13
35910;BME280;22004;49.120;-0.200;2023-03-15T13:40:54;101539.78;;;13.06;50.17
35910;BME280;22004;49.120;-0.200;2023-03-15T13:43:24;101546.16;;;13.13;50.81